sensor_id;sensor_type;location;lat;lon;timestamp;temperature;humidity
1570;DHT22;778;50.120;8.698;2023-03-08T00:01:34;4.70;99.90
1570;DHT22;778;50.120;8.698;2023-03-08T00:04:03;4.70;99.90
1570;DHT22;778;50.120;8.698;2023-03-08T00:06:31;4.70;99.90
1570;DHT22;778;50.120;8.698;2023-03-08T00:09:01;4.60;99.90
1570;DHT22;778;50.120;8.698;2023-03-08T00:11:30;4.70;99.90
1570;DHT22;778;50.120;8.698;2023-03-08T00:13:58;4.70;99.90
1570;DHT22;778;50.120;8.698;2023-03-08T00:16:27;4.80;99.90
1570;DHT22;778;50.120;8.698;2023-03-08T00:18:57;4.70;99.90
1570;DHT22;778;50.120;8.698;2023-03-08T00:21:26;4.70;99.90
1570;DHT22;778;50.120;8.698;2023-03-08T00:23:54;4.80;99.90
1570;DHT22;778;50.120;8.698;2023-03-08T00:26:23;4.70;99.90
1570;DHT22;778;50.120;8.698;2023-03-08T00:28:51;4.70;99.90
1570;DHT22;778;50.120;8.698;2023-03-08T00:31:20;4.70;99.90
1570;DHT22;778;50.120;8.698;2023-03-08T00:33:52;4.80;99.90
1570;DHT22;778;50.120;8.698;2023-03-08T00:36:23;4.70;99.90
1570;DHT22;778;50.120;8.698;2023-03-08T00:38:51;4.80;99.90
1570;DHT22;778;50.120;8.698;2023-03-08T00:41:20;4.70;99.90
1570;DHT22;778;50.120;8.698;2023-03-08T00:43:48;4.70;99.90
1570;DHT22;778;50.120;8.698;2023-03-08T00:46:17;4.70;99.90
1570;DHT22;778;50.120;8.698;2023-03-08T00:48:46;4.70;99.90
1570;DHT22;778;50.120;8.698;2023-03-08T00:51:16;4.70;99.90
1570;DHT22;778;50.120;8.698;2023-03-08T00:53:47;4.70;99.90
1570;DHT22;778;50.120;8.698;2023-03-08T00:56:16;4.70;99.90
1570;DHT22;778;50.120;8.698;2023-03-08T00:58:45;4.80;99.90
1570;DHT22;778;50.120;8.698;2023-03-08T01:01:15;4.80;99.90
1570;DHT22;778;50.120;8.698;2023-03-08T01:03:47;4.90;99.90
1570;DHT22;778;50.120;8.698;2023-03-08T01:06:16;4.80;99.90
1570;DHT22;778;50.120;8.698;2023-03-08T01:08:44;4.80;99.90
1570;DHT22;778;50.120;8.698;2023-03-08T01:11:17;4.80;99.90
1570;DHT22;778;50.120;8.698;2023-03-08T01:13:46;4.80;99.90
1570;DHT22;778;50.120;8.698;2023-03-08T01:16:18;4.80;99.90
1570;DHT22;778;50.120;8.698;2023-03-08T01:18:48;4.80;99.90
1570;DHT22;778;50.120;8.698;2023-03-08T01:21:19;4.80;99.90
1570;DHT22;778;50.120;8.698;2023-03-08T01:23:49;4.80;99.90
1570;DHT22;778;50.120;8.698;2023-03-08T01:26:21;4.80;99.90
1570;DHT22;778;50.120;8.698;2023-03-08T01:28:54;4.80;99.90
1570;DHT22;778;50.120;8.698;2023-03-08T01:31:24;4.80;99.90
1570;DHT22;778;50.120;8.698;2023-03-08T01:33:55;4.80;99.90
1570;DHT22;778;50.120;8.698;2023-03-08T01:36:25;4.70;99.90
1570;DHT22;778;50.120;8.698;2023-03-08T01:38:55;4.70;99.90
1570;DHT22;778;50.120;8.698;2023-03-08T01:41:27;4.60;99.90
1570;DHT22;778;50.120;8.698;2023-03-08T01:43:57;4.50;99.90
1570;DHT22;778;50.120;8.698;2023-03-08T01:46:27;4.60;99.90
1570;DHT22;778;50.120;8.698;2023-03-08T01:49:04;4.60;99.90
1570;DHT22;778;50.120;8.698;2023-03-08T01:51:38;4.70;99.90
1570;DHT22;778;50.120;8.698;2023-03-08T01:54:12;4.70;99.90
1570;DHT22;778;50.120;8.698;2023-03-08T01:56:46;4.70;99.90
1570;DHT22;778;50.120;8.698;2023-03-08T01:59:16;4.60;99.90
1570;DHT22;778;50.120;8.698;2023-03-08T02:01:46;4.70;99.90
1570;DHT22;778;50.120;8.698;2023-03-08T02:04:15;4.80;99.90
1570;DHT22;778;50.120;8.698;2023-03-08T02:06:45;4.80;99.90
1570;DHT22;778;50.120;8.698;2023-03-08T02:09:19;4.80;99.90
1570;DHT22;778;50.120;8.698;2023-03-08T02:11:49;4.70;99.90
1570;DHT22;778;50.120;8.698;2023-03-08T02:14:18;4.70;99.90
1570;DHT22;778;50.120;8.698;2023-03-08T02:16:49;4.70;99.90
1570;DHT22;778;50.120;8.698;2023-03-08T02:19:22;4.70;99.90
1570;DHT22;778;50.120;8.698;2023-03-08T02:21:52;4.70;99.90
1570;DHT22;778;50.120;8.698;2023-03-08T02:24:23;4.70;99.90
1570;DHT22;778;50.120;8.698;2023-03-08T02:26:59;4.60;99.90
1570;DHT22;778;50.120;8.698;2023-03-08T02:29:29;4.60;99.90
1570;DHT22;778;50.120;8.698;2023-03-08T02:31:57;4.60;99.90
1570;DHT22;778;50.120;8.698;2023-03-08T02:34:26;4.60;99.90
1570;DHT22;778;50.120;8.698;2023-03-08T02:36:54;4.60;99.90
1570;DHT22;778;50.120;8.698;2023-03-08T02:39:24;4.60;99.90
1570;DHT22;778;50.120;8.698;2023-03-08T02:41:54;4.70;99.90
1570;DHT22;778;50.120;8.698;2023-03-08T02:44:22;4.60;99.90
1570;DHT22;778;50.120;8.698;2023-03-08T02:46:52;4.60;99.90
1570;DHT22;778;50.120;8.698;2023-03-08T02:49:21;4.60;99.90
1570;DHT22;778;50.120;8.698;2023-03-08T02:51:50;4.60;99.90
1570;DHT22;778;50.120;8.698;2023-03-08T02:54:20;4.60;99.90
1570;DHT22;778;50.120;8.698;2023-03-08T02:56:49;4.60;99.90
1570;DHT22;778;50.120;8.698;2023-03-08T02:59:18;4.60;99.90
1570;DHT22;778;50.120;8.698;2023-03-08T03:01:50;4.60;99.90
1570;DHT22;778;50.120;8.698;2023-03-08T03:04:20;4.60;99.90
1570;DHT22;778;50.120;8.698;2023-03-08T03:06:49;4.50;99.90
1570;DHT22;778;50.120;8.698;2023-03-08T03:09:17;4.40;99.90
1570;DHT22;778;50.120;8.698;2023-03-08T03:11:46;4.40;99.90
1570;DHT22;778;50.120;8.698;2023-03-08T03:14:15;4.40;99.90
1570;DHT22;778;50.120;8.698;2023-03-08T03:16:44;4.40;99.90
1570;DHT22;778;50.120;8.698;2023-03-08T03:19:13;4.40;99.90
1570;DHT22;778;50.120;8.698;2023-03-08T03:21:42;4.50;99.90
1570;DHT22;778;50.120;8.698;2023-03-08T03:24:10;4.60;99.90
1570;DHT22;778;50.120;8.698;2023-03-08T03:26:58;5.20;99.90
1570;DHT22;778;50.120;8.698;2023-03-08T03:29:32;5.70;99.90
1570;DHT22;778;50.120;8.698;2023-03-08T03:32:13;5.30;99.90
1570;DHT22;778;50.120;8.698;2023-03-08T03:34:42;5.90;99.90
1570;DHT22;778;50.120;8.698;2023-03-08T03:37:12;5.70;99.90
1570;DHT22;778;50.120;8.698;2023-03-08T03:39:40;5.30;99.90
1570;DHT22;778;50.120;8.698;2023-03-08T03:42:12;5.10;99.90
1570;DHT22;778;50.120;8.698;2023-03-08T03:44:49;4.80;99.90
1570;DHT22;778;50.120;8.698;2023-03-08T03:47:20;4.70;99.90
1570;DHT22;778;50.120;8.698;2023-03-08T03:49:53;4.60;99.90
1570;DHT22;778;50.120;8.698;2023-03-08T03:52:22;4.50;99.90
1570;DHT22;778;50.120;8.698;2023-03-08T03:54:59;4.40;99.90
1570;DHT22;778;50.120;8.698;2023-03-08T03:57:27;4.40;99.90
1570;DHT22;778;50.120;8.698;2023-03-08T03:59:58;4.40;99.90
1570;DHT22;778;50.120;8.698;2023-03-08T04:02:27;4.40;99.90
1570;DHT22;778;50.120;8.698;2023-03-08T04:04:58;4.30;99.90
1570;DHT22;778;50.120;8.698;2023-03-08T04:07:29;4.30;99.90
1570;DHT22;778;50.120;8.698;2023-03-08T04:09:59;4.40;99.90
1570;DHT22;778;50.120;8.698;2023-03-08T04:12:29;4.20;99.90
1570;DHT22;778;50.120;8.698;2023-03-08T04:14:59;4.20;99.90
1570;DHT22;778;50.120;8.698;2023-03-08T04:17:30;4.20;99.90
1570;DHT22;778;50.120;8.698;2023-03-08T04:19:58;4.30;99.90
1570;DHT22;778;50.120;8.698;2023-03-08T04:22:31;4.40;99.90
1570;DHT22;778;50.120;8.698;2023-03-08T04:25:07;4.50;99.90
1570;DHT22;778;50.120;8.698;2023-03-08T04:27:43;4.60;99.90
1570;DHT22;778;50.120;8.698;2023-03-08T04:30:13;4.70;99.90
1570;DHT22;778;50.120;8.698;2023-03-08T04:32:43;4.70;99.90
1570;DHT22;778;50.120;8.698;2023-03-08T04:35:12;4.70;99.90
1570;DHT22;778;50.120;8.698;2023-03-08T04:37:42;4.60;99.90
1570;DHT22;778;50.120;8.698;2023-03-08T04:40:16;4.60;99.90
1570;DHT22;778;50.120;8.698;2023-03-08T04:42:52;4.60;99.90
1570;DHT22;778;50.120;8.698;2023-03-08T04:45:27;4.60;99.90
1570;DHT22;778;50.120;8.698;2023-03-08T04:47:57;4.70;99.90
1570;DHT22;778;50.120;8.698;2023-03-08T04:50:26;4.60;99.90
1570;DHT22;778;50.120;8.698;2023-03-08T04:52:56;4.70;99.90
1570;DHT22;778;50.120;8.698;2023-03-08T04:55:25;4.60;99.90
1570;DHT22;778;50.120;8.698;2023-03-08T04:57:54;4.60;99.90
1570;DHT22;778;50.120;8.698;2023-03-08T05:00:24;4.70;99.90
1570;DHT22;778;50.120;8.698;2023-03-08T05:02:54;4.70;99.90
1570;DHT22;778;50.120;8.698;2023-03-08T05:05:23;4.70;99.90
1570;DHT22;778;50.120;8.698;2023-03-08T05:07:53;4.70;99.90
1570;DHT22;778;50.120;8.698;2023-03-08T05:10:21;4.70;99.90
1570;DHT22;778;50.120;8.698;2023-03-08T05:12:50;4.80;99.90
1570;DHT22;778;50.120;8.698;2023-03-08T05:15:18;4.80;99.90
1570;DHT22;778;50.120;8.698;2023-03-08T05:17:49;4.80;99.90
1570;DHT22;778;50.120;8.698;2023-03-08T05:20:22;4.80;99.90
1570;DHT22;778;50.120;8.698;2023-03-08T05:22:51;4.70;99.90
1570;DHT22;778;50.120;8.698;2023-03-08T05:25:32;4.70;99.90
1570;DHT22;778;50.120;8.698;2023-03-08T05:28:01;4.60;99.90
1570;DHT22;778;50.120;8.698;2023-03-08T05:30:29;4.70;99.90
1570;DHT22;778;50.120;8.698;2023-03-08T05:33:00;4.70;99.90
1570;DHT22;778;50.120;8.698;2023-03-08T05:35:28;4.70;99.90
1570;DHT22;778;50.120;8.698;2023-03-08T05:37:57;4.70;99.90
1570;DHT22;778;50.120;8.698;2023-03-08T05:40:25;4.80;99.90
1570;DHT22;778;50.120;8.698;2023-03-08T05:42:55;4.80;99.90
1570;DHT22;778;50.120;8.698;2023-03-08T05:45:25;4.90;99.90
1570;DHT22;778;50.120;8.698;2023-03-08T05:47:54;4.80;99.90
1570;DHT22;778;50.120;8.698;2023-03-08T05:50:24;4.90;99.90
1570;DHT22;778;50.120;8.698;2023-03-08T05:52:53;4.80;99.90
1570;DHT22;778;50.120;8.698;2023-03-08T05:55:25;4.90;99.90
1570;DHT22;778;50.120;8.698;2023-03-08T05:57:55;4.80;99.90
1570;DHT22;778;50.120;8.698;2023-03-08T06:00:24;4.80;99.90
1570;DHT22;778;50.120;8.698;2023-03-08T06:02:57;4.80;99.90
1570;DHT22;778;50.120;8.698;2023-03-08T06:05:33;4.80;99.90
1570;DHT22;778;50.120;8.698;2023-03-08T06:08:02;4.70;99.90
1570;DHT22;778;50.120;8.698;2023-03-08T06:10:31;4.70;99.90
1570;DHT22;778;50.120;8.698;2023-03-08T06:13:00;4.70;99.90
1570;DHT22;778;50.120;8.698;2023-03-08T06:15:29;4.70;99.90
1570;DHT22;778;50.120;8.698;2023-03-08T06:17:58;4.70;99.90
1570;DHT22;778;50.120;8.698;2023-03-08T06:20:27;4.70;99.90
1570;DHT22;778;50.120;8.698;2023-03-08T06:22:56;4.80;99.90
1570;DHT22;778;50.120;8.698;2023-03-08T06:25:25;4.70;99.90
1570;DHT22;778;50.120;8.698;2023-03-08T06:27:54;4.70;99.90
1570;DHT22;778;50.120;8.698;2023-03-08T06:30:29;4.60;99.90
1570;DHT22;778;50.120;8.698;2023-03-08T06:32:57;4.60;99.90
1570;DHT22;778;50.120;8.698;2023-03-08T06:35:26;4.70;99.90
1570;DHT22;778;50.120;8.698;2023-03-08T06:38:00;4.70;99.90
1570;DHT22;778;50.120;8.698;2023-03-08T06:40:30;4.70;99.90
1570;DHT22;778;50.120;8.698;2023-03-08T06:42:58;4.70;99.90
1570;DHT22;778;50.120;8.698;2023-03-08T06:45:27;4.60;99.90
1570;DHT22;778;50.120;8.698;2023-03-08T06:47:56;4.60;99.90
1570;DHT22;778;50.120;8.698;2023-03-08T06:50:24;4.50;99.90
1570;DHT22;778;50.120;8.698;2023-03-08T06:52:53;4.50;99.90
1570;DHT22;778;50.120;8.698;2023-03-08T06:55:35;4.60;99.90
1570;DHT22;778;50.120;8.698;2023-03-08T06:58:05;4.50;99.90
1570;DHT22;778;50.120;8.698;2023-03-08T07:00:34;4.40;99.90
1570;DHT22;778;50.120;8.698;2023-03-08T07:03:02;4.40;99.90
1570;DHT22;778;50.120;8.698;2023-03-08T07:05:31;4.40;99.90
1570;DHT22;778;50.120;8.698;2023-03-08T07:08:00;4.40;99.90
1570;DHT22;778;50.120;8.698;2023-03-08T07:10:29;4.30;99.90
1570;DHT22;778;50.120;8.698;2023-03-08T07:12:58;4.20;99.90
1570;DHT22;778;50.120;8.698;2023-03-08T07:15:27;4.10;99.90
1570;DHT22;778;50.120;8.698;2023-03-08T07:17:56;4.10;99.90
1570;DHT22;778;50.120;8.698;2023-03-08T07:20:26;4.10;99.90
1570;DHT22;778;50.120;8.698;2023-03-08T07:22:54;4.00;99.90
1570;DHT22;778;50.120;8.698;2023-03-08T07:25:23;3.90;99.90
1570;DHT22;778;50.120;8.698;2023-03-08T07:27:51;3.90;99.90
1570;DHT22;778;50.120;8.698;2023-03-08T07:30:21;3.90;99.90
1570;DHT22;778;50.120;8.698;2023-03-08T07:32:51;3.80;99.90
1570;DHT22;778;50.120;8.698;2023-03-08T07:35:20;3.80;99.90
1570;DHT22;778;50.120;8.698;2023-03-08T07:37:49;3.80;99.90
1570;DHT22;778;50.120;8.698;2023-03-08T07:40:17;3.80;99.90
1570;DHT22;778;50.120;8.698;2023-03-08T07:42:46;3.70;99.90
1570;DHT22;778;50.120;8.698;2023-03-08T07:45:52;3.70;99.90
1570;DHT22;778;50.120;8.698;2023-03-08T07:48:20;3.70;99.90
1570;DHT22;778;50.120;8.698;2023-03-08T07:50:49;3.60;99.90
1570;DHT22;778;50.120;8.698;2023-03-08T07:53:18;3.60;99.90
1570;DHT22;778;50.120;8.698;2023-03-08T07:55:46;3.50;99.90
1570;DHT22;778;50.120;8.698;2023-03-08T07:58:15;3.40;99.90
1570;DHT22;778;50.120;8.698;2023-03-08T08:00:43;3.40;99.90
1570;DHT22;778;50.120;8.698;2023-03-08T08:03:13;3.50;99.90
1570;DHT22;778;50.120;8.698;2023-03-08T08:05:41;3.50;99.90
1570;DHT22;778;50.120;8.698;2023-03-08T08:08:10;3.60;99.90
1570;DHT22;778;50.120;8.698;2023-03-08T08:10:43;3.60;99.90
1570;DHT22;778;50.120;8.698;2023-03-08T08:13:11;3.50;99.90
1570;DHT22;778;50.120;8.698;2023-03-08T08:15:40;3.40;99.90
1570;DHT22;778;50.120;8.698;2023-03-08T08:18:08;3.30;99.90
1570;DHT22;778;50.120;8.698;2023-03-08T08:20:38;3.50;99.90
1570;DHT22;778;50.120;8.698;2023-03-08T08:23:06;3.30;99.90
1570;DHT22;778;50.120;8.698;2023-03-08T08:25:35;3.30;99.90
1570;DHT22;778;50.120;8.698;2023-03-08T08:28:06;3.20;99.90
1570;DHT22;778;50.120;8.698;2023-03-08T08:30:34;3.10;99.90
1570;DHT22;778;50.120;8.698;2023-03-08T08:33:03;3.10;99.90
1570;DHT22;778;50.120;8.698;2023-03-08T08:35:32;3.10;99.90
1570;DHT22;778;50.120;8.698;2023-03-08T08:38:10;3.10;99.90
1570;DHT22;778;50.120;8.698;2023-03-08T08:40:39;3.10;99.90
1570;DHT22;778;50.120;8.698;2023-03-08T08:43:07;3.10;99.90
1570;DHT22;778;50.120;8.698;2023-03-08T08:45:36;3.20;99.90
1570;DHT22;778;50.120;8.698;2023-03-08T08:48:04;3.10;99.90
1570;DHT22;778;50.120;8.698;2023-03-08T08:50:33;3.10;99.90
1570;DHT22;778;50.120;8.698;2023-03-08T08:53:01;3.00;99.90
1570;DHT22;778;50.120;8.698;2023-03-08T08:55:32;3.10;99.90
1570;DHT22;778;50.120;8.698;2023-03-08T08:58:01;2.90;99.90
1570;DHT22;778;50.120;8.698;2023-03-08T09:00:32;2.90;99.90
1570;DHT22;778;50.120;8.698;2023-03-08T09:03:02;2.80;99.90
1570;DHT22;778;50.120;8.698;2023-03-08T09:05:33;2.80;99.90
1570;DHT22;778;50.120;8.698;2023-03-08T09:08:04;2.90;99.90
1570;DHT22;778;50.120;8.698;2023-03-08T09:10:36;2.90;99.90
1570;DHT22;778;50.120;8.698;2023-03-08T09:13:06;3.00;99.90
1570;DHT22;778;50.120;8.698;2023-03-08T09:15:35;2.80;99.90
1570;DHT22;778;50.120;8.698;2023-03-08T09:18:04;2.60;99.90
1570;DHT22;778;50.120;8.698;2023-03-08T09:20:32;2.60;99.90
1570;DHT22;778;50.120;8.698;2023-03-08T09:23:01;2.60;99.90
1570;DHT22;778;50.120;8.698;2023-03-08T09:25:29;2.60;99.90
1570;DHT22;778;50.120;8.698;2023-03-08T09:27:59;2.60;99.90
1570;DHT22;778;50.120;8.698;2023-03-08T09:30:27;2.60;99.90
1570;DHT22;778;50.120;8.698;2023-03-08T09:32:58;2.80;99.90
1570;DHT22;778;50.120;8.698;2023-03-08T09:35:28;2.80;99.90
1570;DHT22;778;50.120;8.698;2023-03-08T09:37:56;2.70;99.90
1570;DHT22;778;50.120;8.698;2023-03-08T09:40:28;2.60;99.90
1570;DHT22;778;50.120;8.698;2023-03-08T09:43:05;2.70;99.90
1570;DHT22;778;50.120;8.698;2023-03-08T09:45:34;2.80;99.90
1570;DHT22;778;50.120;8.698;2023-03-08T09:48:07;2.80;99.90
1570;DHT22;778;50.120;8.698;2023-03-08T09:50:43;2.70;99.90
1570;DHT22;778;50.120;8.698;2023-03-08T09:53:19;2.70;99.90
1570;DHT22;778;50.120;8.698;2023-03-08T09:55:54;2.80;99.90
1570;DHT22;778;50.120;8.698;2023-03-08T09:58:31;2.80;99.90
1570;DHT22;778;50.120;8.698;2023-03-08T10:01:13;2.80;99.90
1570;DHT22;778;50.120;8.698;2023-03-08T10:04:31;2.70;99.90
1570;DHT22;778;50.120;8.698;2023-03-08T10:07:14;2.60;99.90
1570;DHT22;778;50.120;8.698;2023-03-08T10:09:54;2.70;99.90
1570;DHT22;778;50.120;8.698;2023-03-08T10:12:33;2.70;99.90
1570;DHT22;778;50.120;8.698;2023-03-08T10:15:17;2.70;99.90
1570;DHT22;778;50.120;8.698;2023-03-08T10:17:51;2.80;99.90
1570;DHT22;778;50.120;8.698;2023-03-08T10:20:22;2.80;99.90
1570;DHT22;778;50.120;8.698;2023-03-08T10:22:56;2.80;99.90
1570;DHT22;778;50.120;8.698;2023-03-08T10:25:27;2.70;99.90
1570;DHT22;778;50.120;8.698;2023-03-08T10:27:58;2.70;99.90
1570;DHT22;778;50.120;8.698;2023-03-08T10:30:33;2.70;99.90
1570;DHT22;778;50.120;8.698;2023-03-08T10:33:06;2.70;99.90
1570;DHT22;778;50.120;8.698;2023-03-08T10:35:37;2.80;99.90
1570;DHT22;778;50.120;8.698;2023-03-08T10:38:17;2.70;99.90
1570;DHT22;778;50.120;8.698;2023-03-08T10:40:46;2.80;99.90
1570;DHT22;778;50.120;8.698;2023-03-08T10:43:18;2.70;99.90
1570;DHT22;778;50.120;8.698;2023-03-08T10:45:59;2.80;99.90
1570;DHT22;778;50.120;8.698;2023-03-08T10:48:28;2.80;99.90
1570;DHT22;778;50.120;8.698;2023-03-08T10:50:58;2.90;99.90
1570;DHT22;778;50.120;8.698;2023-03-08T10:53:28;2.90;99.90
1570;DHT22;778;50.120;8.698;2023-03-08T10:55:59;3.50;99.90
1570;DHT22;778;50.120;8.698;2023-03-08T10:58:31;3.50;99.90
1570;DHT22;778;50.120;8.698;2023-03-08T11:01:05;3.70;99.90
1570;DHT22;778;50.120;8.698;2023-03-08T11:03:35;3.80;99.90
1570;DHT22;778;50.120;8.698;2023-03-08T11:06:05;3.50;99.90
1570;DHT22;778;50.120;8.698;2023-03-08T11:08:51;3.30;99.90
1570;DHT22;778;50.120;8.698;2023-03-08T11:11:20;3.40;99.90
1570;DHT22;778;50.120;8.698;2023-03-08T11:13:50;3.30;99.90
1570;DHT22;778;50.120;8.698;2023-03-08T11:16:47;3.20;99.90
1570;DHT22;778;50.120;8.698;2023-03-08T11:23:08;3.00;99.90
1570;DHT22;778;50.120;8.698;2023-03-08T11:25:44;3.00;99.90
1570;DHT22;778;50.120;8.698;2023-03-08T11:28:31;3.10;99.90
1570;DHT22;778;50.120;8.698;2023-03-08T11:31:18;3.20;99.90
1570;DHT22;778;50.120;8.698;2023-03-08T11:34:05;3.20;99.90
1570;DHT22;778;50.120;8.698;2023-03-08T11:36:47;3.20;99.90
1570;DHT22;778;50.120;8.698;2023-03-08T11:39:24;3.20;99.90
1570;DHT22;778;50.120;8.698;2023-03-08T11:41:58;3.20;99.90
1570;DHT22;778;50.120;8.698;2023-03-08T11:44:47;3.30;99.90
1570;DHT22;778;50.120;8.698;2023-03-08T11:47:51;3.40;99.90
1570;DHT22;778;50.120;8.698;2023-03-08T11:50:35;3.40;99.90
1570;DHT22;778;50.120;8.698;2023-03-08T11:53:16;3.40;99.90
1570;DHT22;778;50.120;8.698;2023-03-08T11:55:57;3.40;99.90
1570;DHT22;778;50.120;8.698;2023-03-08T11:58:35;3.40;99.90
1570;DHT22;778;50.120;8.698;2023-03-08T12:01:10;3.30;99.90
1570;DHT22;778;50.120;8.698;2023-03-08T12:03:44;3.30;99.90
1570;DHT22;778;50.120;8.698;2023-03-08T12:06:20;3.40;99.90
1570;DHT22;778;50.120;8.698;2023-03-08T12:08:58;3.40;99.90
1570;DHT22;778;50.120;8.698;2023-03-08T12:11:31;3.50;99.90
1570;DHT22;778;50.120;8.698;2023-03-08T12:14:05;3.60;99.90
1570;DHT22;778;50.120;8.698;2023-03-08T12:16:46;3.60;99.90
1570;DHT22;778;50.120;8.698;2023-03-08T12:19:23;3.70;99.90
1570;DHT22;778;50.120;8.698;2023-03-08T12:22:03;3.70;99.90
1570;DHT22;778;50.120;8.698;2023-03-08T12:24:45;3.70;99.90
1570;DHT22;778;50.120;8.698;2023-03-08T12:27:19;3.70;99.90
1570;DHT22;778;50.120;8.698;2023-03-08T12:29:54;3.80;99.90
1570;DHT22;778;50.120;8.698;2023-03-08T12:32:25;3.90;99.90
1570;DHT22;778;50.120;8.698;2023-03-08T12:35:02;3.90;99.90
1570;DHT22;778;50.120;8.698;2023-03-08T12:37:33;3.90;99.90
1570;DHT22;778;50.120;8.698;2023-03-08T12:40:04;3.80;99.90
1570;DHT22;778;50.120;8.698;2023-03-08T12:42:38;3.90;99.90
1570;DHT22;778;50.120;8.698;2023-03-08T12:45:24;3.90;99.90
1570;DHT22;778;50.120;8.698;2023-03-08T12:48:06;4.00;99.90
1570;DHT22;778;50.120;8.698;2023-03-08T12:50:44;4.00;99.90
1570;DHT22;778;50.120;8.698;2023-03-08T12:53:25;4.00;99.90
1570;DHT22;778;50.120;8.698;2023-03-08T12:56:14;3.90;99.90
1570;DHT22;778;50.120;8.698;2023-03-08T12:58:49;4.00;99.90
1570;DHT22;778;50.120;8.698;2023-03-08T13:01:33;4.00;99.90
1570;DHT22;778;50.120;8.698;2023-03-08T13:04:05;4.00;99.90
1570;DHT22;778;50.120;8.698;2023-03-08T13:06:59;4.20;99.90
1570;DHT22;778;50.120;8.698;2023-03-08T13:09:43;4.20;99.90
1570;DHT22;778;50.120;8.698;2023-03-08T13:12:26;4.20;99.90
1570;DHT22;778;50.120;8.698;2023-03-08T13:15:23;4.20;99.90
1570;DHT22;778;50.120;8.698;2023-03-08T13:17:59;4.20;99.90
1570;DHT22;778;50.120;8.698;2023-03-08T13:20:55;4.20;99.90
1570;DHT22;778;50.120;8.698;2023-03-08T13:23:36;4.20;99.90
1570;DHT22;778;50.120;8.698;2023-03-08T13:29:27;4.10;99.90
1570;DHT22;778;50.120;8.698;2023-03-08T13:31:58;4.10;99.90
1570;DHT22;778;50.120;8.698;2023-03-08T13:34:33;4.20;99.90
1570;DHT22;778;50.120;8.698;2023-03-08T13:37:02;4.20;99.90
1570;DHT22;778;50.120;8.698;2023-03-08T13:39:31;4.20;99.90
1570;DHT22;778;50.120;8.698;2023-03-08T13:42:09;4.30;99.90
1570;DHT22;778;50.120;8.698;2023-03-08T13:44:38;4.20;99.90
1570;DHT22;778;50.120;8.698;2023-03-08T13:47:19;4.30;99.90
1570;DHT22;778;50.120;8.698;2023-03-08T13:49:50;4.30;99.90
1570;DHT22;778;50.120;8.698;2023-03-08T13:52:22;4.40;99.90
1570;DHT22;778;50.120;8.698;2023-03-08T13:54:57;4.40;99.90
1570;DHT22;778;50.120;8.698;2023-03-08T13:57:30;4.40;99.90
1570;DHT22;778;50.120;8.698;2023-03-08T14:00:07;4.50;99.90
1570;DHT22;778;50.120;8.698;2023-03-08T14:02:47;4.50;99.90
1570;DHT22;778;50.120;8.698;2023-03-08T14:05:18;4.60;99.90
1570;DHT22;778;50.120;8.698;2023-03-08T14:07:58;4.60;99.90
1570;DHT22;778;50.120;8.698;2023-03-08T14:10:36;4.50;99.90
1570;DHT22;778;50.120;8.698;2023-03-08T14:13:16;4.50;99.90
1570;DHT22;778;50.120;8.698;2023-03-08T14:15:51;4.50;99.90
1570;DHT22;778;50.120;8.698;2023-03-08T14:18:21;4.60;99.90
1570;DHT22;778;50.120;8.698;2023-03-08T14:21:06;4.70;99.90
1570;DHT22;778;50.120;8.698;2023-03-08T14:23:42;4.70;99.90
1570;DHT22;778;50.120;8.698;2023-03-08T14:26:29;4.70;99.90
1570;DHT22;778;50.120;8.698;2023-03-08T14:29:17;4.70;99.90
1570;DHT22;778;50.120;8.698;2023-03-08T14:31:57;4.70;99.90
1570;DHT22;778;50.120;8.698;2023-03-08T14:34:29;4.60;99.90
1570;DHT22;778;50.120;8.698;2023-03-08T14:37:04;4.60;99.90
1570;DHT22;778;50.120;8.698;2023-03-08T14:39:35;4.60;99.90
1570;DHT22;778;50.120;8.698;2023-03-08T14:42:16;4.70;99.90
1570;DHT22;778;50.120;8.698;2023-03-08T14:44:51;4.70;99.90
1570;DHT22;778;50.120;8.698;2023-03-08T14:47:23;4.80;99.90
1570;DHT22;778;50.120;8.698;2023-03-08T14:49:59;4.70;99.90
1570;DHT22;778;50.120;8.698;2023-03-08T14:52:30;4.70;99.90
1570;DHT22;778;50.120;8.698;2023-03-08T14:55:00;4.70;99.90
1570;DHT22;778;50.120;8.698;2023-03-08T14:57:29;4.70;99.90
1570;DHT22;778;50.120;8.698;2023-03-08T15:00:10;4.70;99.90
1570;DHT22;778;50.120;8.698;2023-03-08T15:02:42;4.70;99.90
1570;DHT22;778;50.120;8.698;2023-03-08T15:05:14;4.60;99.90
1570;DHT22;778;50.120;8.698;2023-03-08T15:07:56;4.70;99.90
1570;DHT22;778;50.120;8.698;2023-03-08T15:10:29;4.70;99.90
1570;DHT22;778;50.120;8.698;2023-03-08T15:13:03;4.60;99.90
1570;DHT22;778;50.120;8.698;2023-03-08T15:15:35;4.70;99.90
1570;DHT22;778;50.120;8.698;2023-03-08T15:18:03;4.70;99.90
1570;DHT22;778;50.120;8.698;2023-03-08T15:20:32;4.60;99.90
1570;DHT22;778;50.120;8.698;2023-03-08T15:23:04;4.60;99.90
1570;DHT22;778;50.120;8.698;2023-03-08T15:25:35;4.70;99.90
1570;DHT22;778;50.120;8.698;2023-03-08T15:28:04;4.70;99.90
1570;DHT22;778;50.120;8.698;2023-03-08T15:30:34;4.70;99.90
1570;DHT22;778;50.120;8.698;2023-03-08T15:33:03;4.80;99.90
1570;DHT22;778;50.120;8.698;2023-03-08T15:35:31;4.80;99.90
1570;DHT22;778;50.120;8.698;2023-03-08T15:38:00;4.80;99.90
1570;DHT22;778;50.120;8.698;2023-03-08T15:40:30;4.80;99.90
1570;DHT22;778;50.120;8.698;2023-03-08T15:42:59;4.80;99.90
1570;DHT22;778;50.120;8.698;2023-03-08T15:45:27;4.80;99.90
1570;DHT22;778;50.120;8.698;2023-03-08T15:47:59;4.80;99.90
1570;DHT22;778;50.120;8.698;2023-03-08T15:50:29;4.80;99.90
1570;DHT22;778;50.120;8.698;2023-03-08T15:52:59;4.90;99.90
1570;DHT22;778;50.120;8.698;2023-03-08T15:55:28;4.90;99.90
1570;DHT22;778;50.120;8.698;2023-03-08T15:57:57;4.90;99.90
1570;DHT22;778;50.120;8.698;2023-03-08T16:00:26;4.90;99.90
1570;DHT22;778;50.120;8.698;2023-03-08T16:02:55;4.90;99.90
1570;DHT22;778;50.120;8.698;2023-03-08T16:05:25;4.90;99.90
1570;DHT22;778;50.120;8.698;2023-03-08T16:07:55;4.90;99.90
1570;DHT22;778;50.120;8.698;2023-03-08T16:10:26;4.90;99.90
1570;DHT22;778;50.120;8.698;2023-03-08T16:12:56;5.00;99.90
1570;DHT22;778;50.120;8.698;2023-03-08T16:15:24;5.00;99.90
1570;DHT22;778;50.120;8.698;2023-03-08T16:17:53;5.10;99.90
1570;DHT22;778;50.120;8.698;2023-03-08T16:20:21;5.10;99.90
1570;DHT22;778;50.120;8.698;2023-03-08T16:22:52;5.00;99.90
1570;DHT22;778;50.120;8.698;2023-03-08T16:25:21;4.90;99.90
1570;DHT22;778;50.120;8.698;2023-03-08T16:27:49;4.80;99.90
1570;DHT22;778;50.120;8.698;2023-03-08T16:30:19;4.90;99.90
1570;DHT22;778;50.120;8.698;2023-03-08T16:32:50;4.90;99.90
1570;DHT22;778;50.120;8.698;2023-03-08T16:35:19;4.90;99.90
1570;DHT22;778;50.120;8.698;2023-03-08T16:37:52;4.90;99.90
1570;DHT22;778;50.120;8.698;2023-03-08T16:40:21;4.90;99.90
1570;DHT22;778;50.120;8.698;2023-03-08T16:42:50;5.00;99.90
1570;DHT22;778;50.120;8.698;2023-03-08T16:45:18;5.00;99.90
1570;DHT22;778;50.120;8.698;2023-03-08T16:47:47;5.00;99.90
1570;DHT22;778;50.120;8.698;2023-03-08T16:50:16;5.00;99.90
1570;DHT22;778;50.120;8.698;2023-03-08T16:52:44;5.10;99.90
1570;DHT22;778;50.120;8.698;2023-03-08T16:55:14;5.10;99.90
1570;DHT22;778;50.120;8.698;2023-03-08T16:57:43;5.10;99.90
1570;DHT22;778;50.120;8.698;2023-03-08T17:00:13;5.20;99.90
1570;DHT22;778;50.120;8.698;2023-03-08T17:02:42;5.10;99.90
1570;DHT22;778;50.120;8.698;2023-03-08T17:05:11;5.10;99.90
1570;DHT22;778;50.120;8.698;2023-03-08T17:07:39;5.10;99.90
1570;DHT22;778;50.120;8.698;2023-03-08T17:10:09;4.90;99.90
1570;DHT22;778;50.120;8.698;2023-03-08T17:12:39;4.90;99.90
1570;DHT22;778;50.120;8.698;2023-03-08T17:15:08;4.90;99.90